sensor_id;sensor_type;location;lat;lon;timestamp;temperature;humidity
43999;DHT22;51319;52.162;5.302;2024-03-08T00:00:12;3.00;99.70
43999;DHT22;51319;52.162;5.302;2024-03-08T00:02:42;3.00;99.80
43999;DHT22;51319;52.162;5.302;2024-03-08T00:05:10;2.90;99.80
43999;DHT22;51319;52.162;5.302;2024-03-08T00:07:41;2.90;99.80
43999;DHT22;51319;52.162;5.302;2024-03-08T00:10:10;2.90;99.80
43999;DHT22;51319;52.162;5.302;2024-03-08T00:12:40;2.90;99.70
43999;DHT22;51319;52.162;5.302;2024-03-08T00:15:16;2.90;99.80
43999;DHT22;51319;52.162;5.302;2024-03-08T00:17:46;2.90;99.80
43999;DHT22;51319;52.162;5.302;2024-03-08T00:20:14;2.90;99.80
43999;DHT22;51319;52.162;5.302;2024-03-08T00:22:42;2.80;99.70
43999;DHT22;51319;52.162;5.302;2024-03-08T00:25:09;2.80;99.90
43999;DHT22;51319;52.162;5.302;2024-03-08T00:27:39;2.80;99.80
43999;DHT22;51319;52.162;5.302;2024-03-08T00:30:06;2.70;99.80
43999;DHT22;51319;52.162;5.302;2024-03-08T00:32:35;2.70;99.80
43999;DHT22;51319;52.162;5.302;2024-03-08T00:35:04;2.70;99.80
43999;DHT22;51319;52.162;5.302;2024-03-08T00:37:35;2.70;99.80
43999;DHT22;51319;52.162;5.302;2024-03-08T00:40:04;2.70;99.80
43999;DHT22;51319;52.162;5.302;2024-03-08T00:42:32;2.60;99.80
43999;DHT22;51319;52.162;5.302;2024-03-08T00:45:01;2.60;99.90
43999;DHT22;51319;52.162;5.302;2024-03-08T00:47:28;2.60;99.90
43999;DHT22;51319;52.162;5.302;2024-03-08T00:49:56;2.60;99.90
43999;DHT22;51319;52.162;5.302;2024-03-08T00:52:24;2.60;99.90
43999;DHT22;51319;52.162;5.302;2024-03-08T00:54:51;2.50;99.90
43999;DHT22;51319;52.162;5.302;2024-03-08T00:57:19;2.50;99.90
43999;DHT22;51319;52.162;5.302;2024-03-08T00:59:46;2.50;99.90
43999;DHT22;51319;52.162;5.302;2024-03-08T01:02:15;2.50;99.90
43999;DHT22;51319;52.162;5.302;2024-03-08T01:04:44;2.50;99.90
43999;DHT22;51319;52.162;5.302;2024-03-08T01:07:11;2.40;99.90
43999;DHT22;51319;52.162;5.302;2024-03-08T01:09:38;2.40;99.90
43999;DHT22;51319;52.162;5.302;2024-03-08T01:12:08;2.40;99.90
43999;DHT22;51319;52.162;5.302;2024-03-08T01:14:35;2.30;99.90
43999;DHT22;51319;52.162;5.302;2024-03-08T01:17:02;2.30;99.90
43999;DHT22;51319;52.162;5.302;2024-03-08T01:19:29;2.30;99.90
43999;DHT22;51319;52.162;5.302;2024-03-08T01:21:59;2.30;99.90
43999;DHT22;51319;52.162;5.302;2024-03-08T01:24:26;2.30;99.90
43999;DHT22;51319;52.162;5.302;2024-03-08T01:26:53;2.30;99.90
43999;DHT22;51319;52.162;5.302;2024-03-08T01:29:21;2.20;99.90
43999;DHT22;51319;52.162;5.302;2024-03-08T01:31:49;2.20;99.90
43999;DHT22;51319;52.162;5.302;2024-03-08T01:34:16;2.10;99.90
43999;DHT22;51319;52.162;5.302;2024-03-08T01:36:43;2.10;99.90
43999;DHT22;51319;52.162;5.302;2024-03-08T01:39:10;2.10;99.90
43999;DHT22;51319;52.162;5.302;2024-03-08T01:41:37;2.10;99.90
43999;DHT22;51319;52.162;5.302;2024-03-08T01:44:05;2.00;99.90
43999;DHT22;51319;52.162;5.302;2024-03-08T01:46:34;2.00;99.90
43999;DHT22;51319;52.162;5.302;2024-03-08T01:49:02;2.00;99.90
43999;DHT22;51319;52.162;5.302;2024-03-08T01:51:30;2.00;99.90
43999;DHT22;51319;52.162;5.302;2024-03-08T01:54:01;1.90;99.90
43999;DHT22;51319;52.162;5.302;2024-03-08T01:56:29;1.90;99.90
43999;DHT22;51319;52.162;5.302;2024-03-08T01:58:59;1.90;99.90
43999;DHT22;51319;52.162;5.302;2024-03-08T02:01:27;1.90;99.90
43999;DHT22;51319;52.162;5.302;2024-03-08T02:03:55;1.80;99.90
43999;DHT22;51319;52.162;5.302;2024-03-08T02:06:22;1.80;99.90
43999;DHT22;51319;52.162;5.302;2024-03-08T02:08:49;1.80;99.90
43999;DHT22;51319;52.162;5.302;2024-03-08T02:11:17;1.80;99.90
43999;DHT22;51319;52.162;5.302;2024-03-08T02:13:46;1.70;99.90
43999;DHT22;51319;52.162;5.302;2024-03-08T02:16:20;1.70;99.90
43999;DHT22;51319;52.162;5.302;2024-03-08T02:18:47;1.70;99.90
43999;DHT22;51319;52.162;5.302;2024-03-08T02:21:17;1.60;99.90
43999;DHT22;51319;52.162;5.302;2024-03-08T02:23:47;1.60;99.90
43999;DHT22;51319;52.162;5.302;2024-03-08T02:26:15;1.60;99.90
43999;DHT22;51319;52.162;5.302;2024-03-08T02:28:44;1.60;99.90
43999;DHT22;51319;52.162;5.302;2024-03-08T02:31:11;1.60;99.90
43999;DHT22;51319;52.162;5.302;2024-03-08T02:33:39;1.50;99.90
43999;DHT22;51319;52.162;5.302;2024-03-08T02:36:06;1.50;99.90
43999;DHT22;51319;52.162;5.302;2024-03-08T02:38:34;1.50;99.90
43999;DHT22;51319;52.162;5.302;2024-03-08T02:41:02;1.50;99.90
43999;DHT22;51319;52.162;5.302;2024-03-08T02:43:30;1.40;99.90
43999;DHT22;51319;52.162;5.302;2024-03-08T02:46:00;1.40;99.90
43999;DHT22;51319;52.162;5.302;2024-03-08T02:48:27;1.40;99.90
43999;DHT22;51319;52.162;5.302;2024-03-08T02:50:54;1.40;99.90
43999;DHT22;51319;52.162;5.302;2024-03-08T02:53:21;1.40;99.90
43999;DHT22;51319;52.162;5.302;2024-03-08T02:55:49;1.40;99.90
43999;DHT22;51319;52.162;5.302;2024-03-08T02:58:16;1.40;99.90
43999;DHT22;51319;52.162;5.302;2024-03-08T03:00:43;1.30;99.90
43999;DHT22;51319;52.162;5.302;2024-03-08T03:03:12;1.30;99.90
43999;DHT22;51319;52.162;5.302;2024-03-08T03:05:39;1.30;99.90
43999;DHT22;51319;52.162;5.302;2024-03-08T03:08:15;1.30;99.90
43999;DHT22;51319;52.162;5.302;2024-03-08T03:10:46;1.20;99.90
43999;DHT22;51319;52.162;5.302;2024-03-08T03:13:15;1.20;99.90
43999;DHT22;51319;52.162;5.302;2024-03-08T03:15:43;1.20;99.90
43999;DHT22;51319;52.162;5.302;2024-03-08T03:18:11;1.20;99.90
43999;DHT22;51319;52.162;5.302;2024-03-08T03:20:38;1.20;99.90
43999;DHT22;51319;52.162;5.302;2024-03-08T03:23:10;1.20;99.90
43999;DHT22;51319;52.162;5.302;2024-03-08T03:25:42;1.10;99.90
43999;DHT22;51319;52.162;5.302;2024-03-08T03:28:09;1.10;99.90
43999;DHT22;51319;52.162;5.302;2024-03-08T03:30:38;1.10;99.90
43999;DHT22;51319;52.162;5.302;2024-03-08T03:33:06;1.10;99.90
43999;DHT22;51319;52.162;5.302;2024-03-08T03:35:37;1.10;99.90
43999;DHT22;51319;52.162;5.302;2024-03-08T03:38:05;1.10;99.90
43999;DHT22;51319;52.162;5.302;2024-03-08T03:40:38;1.10;99.90
43999;DHT22;51319;52.162;5.302;2024-03-08T03:43:06;1.10;99.90
43999;DHT22;51319;52.162;5.302;2024-03-08T03:45:37;1.10;99.90
43999;DHT22;51319;52.162;5.302;2024-03-08T03:48:07;1.10;99.90
43999;DHT22;51319;52.162;5.302;2024-03-08T03:50:37;1.10;99.90
43999;DHT22;51319;52.162;5.302;2024-03-08T03:53:06;1.10;99.90
43999;DHT22;51319;52.162;5.302;2024-03-08T03:55:36;1.00;99.90
43999;DHT22;51319;52.162;5.302;2024-03-08T03:58:07;1.00;99.90
43999;DHT22;51319;52.162;5.302;2024-03-08T04:00:38;1.00;99.90
43999;DHT22;51319;52.162;5.302;2024-03-08T04:03:06;1.00;99.90
43999;DHT22;51319;52.162;5.302;2024-03-08T04:05:34;1.00;99.90
43999;DHT22;51319;52.162;5.302;2024-03-08T04:08:02;1.00;99.90
43999;DHT22;51319;52.162;5.302;2024-03-08T04:10:30;1.00;99.90
43999;DHT22;51319;52.162;5.302;2024-03-08T04:12:57;1.00;99.90
43999;DHT22;51319;52.162;5.302;2024-03-08T04:15:24;1.00;99.90
43999;DHT22;51319;52.162;5.302;2024-03-08T04:17:51;1.00;99.90
43999;DHT22;51319;52.162;5.302;2024-03-08T04:20:19;0.90;99.90
43999;DHT22;51319;52.162;5.302;2024-03-08T04:22:49;0.90;99.90
43999;DHT22;51319;52.162;5.302;2024-03-08T04:25:16;0.90;99.90
43999;DHT22;51319;52.162;5.302;2024-03-08T04:27:45;0.90;99.90
43999;DHT22;51319;52.162;5.302;2024-03-08T04:30:12;1.00;99.90
43999;DHT22;51319;52.162;5.302;2024-03-08T04:32:40;0.90;99.90
43999;DHT22;51319;52.162;5.302;2024-03-08T04:35:08;0.90;99.90
43999;DHT22;51319;52.162;5.302;2024-03-08T04:37:36;0.90;99.90
43999;DHT22;51319;52.162;5.302;2024-03-08T04:40:04;0.90;99.90
43999;DHT22;51319;52.162;5.302;2024-03-08T04:42:33;0.90;99.90
43999;DHT22;51319;52.162;5.302;2024-03-08T04:45:00;0.90;99.90
43999;DHT22;51319;52.162;5.302;2024-03-08T04:47:28;0.80;99.90
43999;DHT22;51319;52.162;5.302;2024-03-08T04:49:55;0.80;99.90
43999;DHT22;51319;52.162;5.302;2024-03-08T04:52:23;0.80;99.90
43999;DHT22;51319;52.162;5.302;2024-03-08T04:54:52;0.80;99.90
43999;DHT22;51319;52.162;5.302;2024-03-08T04:57:20;0.80;99.90
43999;DHT22;51319;52.162;5.302;2024-03-08T04:59:47;0.80;99.90
43999;DHT22;51319;52.162;5.302;2024-03-08T05:02:15;0.80;99.90
43999;DHT22;51319;52.162;5.302;2024-03-08T05:04:42;0.80;99.90
43999;DHT22;51319;52.162;5.302;2024-03-08T05:07:10;0.80;99.90
43999;DHT22;51319;52.162;5.302;2024-03-08T05:09:37;0.80;99.90
43999;DHT22;51319;52.162;5.302;2024-03-08T05:12:07;0.80;99.90
43999;DHT22;51319;52.162;5.302;2024-03-08T05:14:35;0.80;99.90
43999;DHT22;51319;52.162;5.302;2024-03-08T05:17:02;0.70;99.90
43999;DHT22;51319;52.162;5.302;2024-03-08T05:19:29;0.70;99.90
43999;DHT22;51319;52.162;5.302;2024-03-08T05:22:02;0.70;99.90
43999;DHT22;51319;52.162;5.302;2024-03-08T05:24:29;0.70;99.90
43999;DHT22;51319;52.162;5.302;2024-03-08T05:26:57;0.70;99.90
43999;DHT22;51319;52.162;5.302;2024-03-08T05:29:26;0.70;99.90
43999;DHT22;51319;52.162;5.302;2024-03-08T05:31:55;0.70;99.90
43999;DHT22;51319;52.162;5.302;2024-03-08T05:34:23;0.60;99.90
43999;DHT22;51319;52.162;5.302;2024-03-08T05:36:51;0.70;99.90
43999;DHT22;51319;52.162;5.302;2024-03-08T05:39:19;0.60;99.90
43999;DHT22;51319;52.162;5.302;2024-03-08T05:41:50;0.70;99.90
43999;DHT22;51319;52.162;5.302;2024-03-08T05:44:19;0.70;99.90
43999;DHT22;51319;52.162;5.302;2024-03-08T05:46:46;0.60;99.80
43999;DHT22;51319;52.162;5.302;2024-03-08T05:49:14;0.60;99.90
43999;DHT22;51319;52.162;5.302;2024-03-08T05:51:42;0.60;99.80
43999;DHT22;51319;52.162;5.302;2024-03-08T05:54:10;0.60;99.90
43999;DHT22;51319;52.162;5.302;2024-03-08T05:56:42;0.60;99.90
43999;DHT22;51319;52.162;5.302;2024-03-08T05:59:11;0.60;99.80
43999;DHT22;51319;52.162;5.302;2024-03-08T06:01:38;0.60;99.80
43999;DHT22;51319;52.162;5.302;2024-03-08T06:04:09;0.60;99.80
43999;DHT22;51319;52.162;5.302;2024-03-08T06:06:39;0.60;99.70
43999;DHT22;51319;52.162;5.302;2024-03-08T06:09:07;0.60;99.80
43999;DHT22;51319;52.162;5.302;2024-03-08T06:11:44;0.60;99.70
43999;DHT22;51319;52.162;5.302;2024-03-08T06:14:12;0.50;99.70
43999;DHT22;51319;52.162;5.302;2024-03-08T06:16:40;0.50;99.70
43999;DHT22;51319;52.162;5.302;2024-03-08T06:19:07;0.60;99.80
43999;DHT22;51319;52.162;5.302;2024-03-08T06:21:34;0.60;99.80
43999;DHT22;51319;52.162;5.302;2024-03-08T06:24:02;0.60;99.80
43999;DHT22;51319;52.162;5.302;2024-03-08T06:26:29;0.60;99.80
43999;DHT22;51319;52.162;5.302;2024-03-08T06:29:01;0.60;99.70
43999;DHT22;51319;52.162;5.302;2024-03-08T06:31:28;0.70;99.70
43999;DHT22;51319;52.162;5.302;2024-03-08T06:33:57;0.70;99.60
43999;DHT22;51319;52.162;5.302;2024-03-08T06:36:24;0.70;99.60
43999;DHT22;51319;52.162;5.302;2024-03-08T06:38:52;0.80;99.50
43999;DHT22;51319;52.162;5.302;2024-03-08T06:41:19;0.90;99.40
43999;DHT22;51319;52.162;5.302;2024-03-08T06:43:47;1.00;99.30
43999;DHT22;51319;52.162;5.302;2024-03-08T06:46:16;1.20;99.40
43999;DHT22;51319;52.162;5.302;2024-03-08T06:48:43;1.30;98.90
43999;DHT22;51319;52.162;5.302;2024-03-08T06:51:10;1.40;98.50
43999;DHT22;51319;52.162;5.302;2024-03-08T06:53:38;1.60;98.30
43999;DHT22;51319;52.162;5.302;2024-03-08T06:56:06;1.90;98.00
43999;DHT22;51319;52.162;5.302;2024-03-08T06:58:35;2.20;97.50
43999;DHT22;51319;52.162;5.302;2024-03-08T07:01:02;2.40;96.90
43999;DHT22;51319;52.162;5.302;2024-03-08T07:03:31;2.40;96.20
43999;DHT22;51319;52.162;5.302;2024-03-08T07:06:00;2.30;95.60
43999;DHT22;51319;52.162;5.302;2024-03-08T07:08:30;2.20;95.40
43999;DHT22;51319;52.162;5.302;2024-03-08T07:10:57;2.10;95.40
43999;DHT22;51319;52.162;5.302;2024-03-08T07:13:26;2.10;95.40
43999;DHT22;51319;52.162;5.302;2024-03-08T07:15:55;2.10;95.40
43999;DHT22;51319;52.162;5.302;2024-03-08T07:18:22;2.30;95.50
43999;DHT22;51319;52.162;5.302;2024-03-08T07:20:53;2.40;95.10
43999;DHT22;51319;52.162;5.302;2024-03-08T07:23:20;2.50;94.80
43999;DHT22;51319;52.162;5.302;2024-03-08T07:26:10;2.70;94.50
43999;DHT22;51319;52.162;5.302;2024-03-08T07:28:37;2.70;93.90
43999;DHT22;51319;52.162;5.302;2024-03-08T07:31:06;2.70;93.60
43999;DHT22;51319;52.162;5.302;2024-03-08T07:33:39;2.70;93.50
43999;DHT22;51319;52.162;5.302;2024-03-08T07:36:06;2.70;93.30
43999;DHT22;51319;52.162;5.302;2024-03-08T07:38:34;2.80;93.10
43999;DHT22;51319;52.162;5.302;2024-03-08T07:41:01;2.90;92.90
43999;DHT22;51319;52.162;5.302;2024-03-08T07:43:33;2.90;92.60
43999;DHT22;51319;52.162;5.302;2024-03-08T07:46:00;3.00;92.40
43999;DHT22;51319;52.162;5.302;2024-03-08T07:48:27;3.10;92.30
43999;DHT22;51319;52.162;5.302;2024-03-08T07:50:54;3.20;92.10
43999;DHT22;51319;52.162;5.302;2024-03-08T07:53:22;3.40;91.90
43999;DHT22;51319;52.162;5.302;2024-03-08T07:55:51;3.40;91.50
43999;DHT22;51319;52.162;5.302;2024-03-08T07:58:19;3.50;91.10
43999;DHT22;51319;52.162;5.302;2024-03-08T08:00:46;3.50;91.00
43999;DHT22;51319;52.162;5.302;2024-03-08T08:03:14;3.60;90.90
43999;DHT22;51319;52.162;5.302;2024-03-08T08:05:42;4.10;91.20
43999;DHT22;51319;52.162;5.302;2024-03-08T08:08:09;5.30;90.80
43999;DHT22;51319;52.162;5.302;2024-03-08T08:10:38;6.70;88.50
43999;DHT22;51319;52.162;5.302;2024-03-08T08:13:07;8.10;81.80
43999;DHT22;51319;52.162;5.302;2024-03-08T08:15:34;9.10;76.20
43999;DHT22;51319;52.162;5.302;2024-03-08T08:18:02;10.10;72.00
43999;DHT22;51319;52.162;5.302;2024-03-08T08:20:33;10.90;67.80
43999;DHT22;51319;52.162;5.302;2024-03-08T08:23:00;11.50;63.60
43999;DHT22;51319;52.162;5.302;2024-03-08T08:25:27;11.90;61.40
43999;DHT22;51319;52.162;5.302;2024-03-08T08:27:55;12.50;59.90
43999;DHT22;51319;52.162;5.302;2024-03-08T08:30:22;13.10;57.40
43999;DHT22;51319;52.162;5.302;2024-03-08T08:32:49;13.50;56.10
43999;DHT22;51319;52.162;5.302;2024-03-08T08:35:17;13.90;54.40
43999;DHT22;51319;52.162;5.302;2024-03-08T08:37:46;14.20;53.10
43999;DHT22;51319;52.162;5.302;2024-03-08T08:40:14;14.70;51.60
43999;DHT22;51319;52.162;5.302;2024-03-08T08:42:42;14.80;49.00
43999;DHT22;51319;52.162;5.302;2024-03-08T08:45:10;15.00;49.50
43999;DHT22;51319;52.162;5.302;2024-03-08T08:47:44;15.30;48.50
43999;DHT22;51319;52.162;5.302;2024-03-08T08:50:13;15.70;48.30
43999;DHT22;51319;52.162;5.302;2024-03-08T08:52:40;16.20;47.70
43999;DHT22;51319;52.162;5.302;2024-03-08T08:55:11;16.50;46.70
43999;DHT22;51319;52.162;5.302;2024-03-08T08:57:42;16.80;45.50
43999;DHT22;51319;52.162;5.302;2024-03-08T09:00:09;17.20;45.30
43999;DHT22;51319;52.162;5.302;2024-03-08T09:02:42;17.50;44.70
43999;DHT22;51319;52.162;5.302;2024-03-08T09:05:10;17.70;43.40
43999;DHT22;51319;52.162;5.302;2024-03-08T09:07:38;18.00;43.00
43999;DHT22;51319;52.162;5.302;2024-03-08T09:10:06;18.10;43.00
43999;DHT22;51319;52.162;5.302;2024-03-08T09:12:43;18.50;42.00
43999;DHT22;51319;52.162;5.302;2024-03-08T09:15:11;18.80;41.10
43999;DHT22;51319;52.162;5.302;2024-03-08T09:17:40;19.00;40.80
43999;DHT22;51319;52.162;5.302;2024-03-08T09:20:09;19.40;40.60
43999;DHT22;51319;52.162;5.302;2024-03-08T09:22:37;19.90;40.90
43999;DHT22;51319;52.162;5.302;2024-03-08T09:25:05;20.20;38.90
43999;DHT22;51319;52.162;5.302;2024-03-08T09:27:32;20.30;38.70
43999;DHT22;51319;52.162;5.302;2024-03-08T09:30:05;20.60;39.00
43999;DHT22;51319;52.162;5.302;2024-03-08T09:32:34;20.90;38.40
43999;DHT22;51319;52.162;5.302;2024-03-08T09:35:02;21.30;38.50
43999;DHT22;51319;52.162;5.302;2024-03-08T09:37:30;21.60;37.30
43999;DHT22;51319;52.162;5.302;2024-03-08T09:39:57;21.60;36.80
43999;DHT22;51319;52.162;5.302;2024-03-08T09:42:27;21.80;36.50
43999;DHT22;51319;52.162;5.302;2024-03-08T09:44:54;22.00;36.10
43999;DHT22;51319;52.162;5.302;2024-03-08T09:47:22;22.10;36.00
43999;DHT22;51319;52.162;5.302;2024-03-08T09:49:52;20.80;36.30
43999;DHT22;51319;52.162;5.302;2024-03-08T09:52:20;18.50;38.20
43999;DHT22;51319;52.162;5.302;2024-03-08T09:54:48;16.60;40.40
43999;DHT22;51319;52.162;5.302;2024-03-08T09:57:18;16.10;42.60
43999;DHT22;51319;52.162;5.302;2024-03-08T09:59:46;17.50;41.80
43999;DHT22;51319;52.162;5.302;2024-03-08T10:02:15;18.70;40.40
43999;DHT22;51319;52.162;5.302;2024-03-08T10:04:44;20.00;38.90
43999;DHT22;51319;52.162;5.302;2024-03-08T10:07:14;20.80;38.20
43999;DHT22;51319;52.162;5.302;2024-03-08T10:09:41;21.50;37.00
43999;DHT22;51319;52.162;5.302;2024-03-08T10:12:18;22.20;36.40
43999;DHT22;51319;52.162;5.302;2024-03-08T10:14:46;23.00;35.50
43999;DHT22;51319;52.162;5.302;2024-03-08T10:17:13;23.30;34.30
43999;DHT22;51319;52.162;5.302;2024-03-08T10:19:49;23.40;34.00
43999;DHT22;51319;52.162;5.302;2024-03-08T10:22:18;23.70;33.50
43999;DHT22;51319;52.162;5.302;2024-03-08T10:24:47;23.80;33.10
43999;DHT22;51319;52.162;5.302;2024-03-08T10:27:16;24.00;33.00
43999;DHT22;51319;52.162;5.302;2024-03-08T10:29:48;24.30;33.20
43999;DHT22;51319;52.162;5.302;2024-03-08T10:32:15;24.80;32.90
43999;DHT22;51319;52.162;5.302;2024-03-08T10:34:42;25.20;32.80
43999;DHT22;51319;52.162;5.302;2024-03-08T10:37:15;25.40;31.90
43999;DHT22;51319;52.162;5.302;2024-03-08T10:39:53;25.50;31.20
43999;DHT22;51319;52.162;5.302;2024-03-08T10:42:29;25.60;31.70
43999;DHT22;51319;52.162;5.302;2024-03-08T10:45:17;25.90;31.00
43999;DHT22;51319;52.162;5.302;2024-03-08T10:47:50;26.00;30.50
43999;DHT22;51319;52.162;5.302;2024-03-08T10:50:22;25.90;30.40
43999;DHT22;51319;52.162;5.302;2024-03-08T10:52:50;25.70;30.40
43999;DHT22;51319;52.162;5.302;2024-03-08T10:55:19;25.70;30.40
43999;DHT22;51319;52.162;5.302;2024-03-08T10:57:47;25.80;30.10
43999;DHT22;51319;52.162;5.302;2024-03-08T11:00:15;25.90;30.30
43999;DHT22;51319;52.162;5.302;2024-03-08T11:02:46;25.90;30.10
43999;DHT22;51319;52.162;5.302;2024-03-08T11:05:48;26.10;30.00
43999;DHT22;51319;52.162;5.302;2024-03-08T11:08:16;26.10;30.00
43999;DHT22;51319;52.162;5.302;2024-03-08T11:10:51;26.10;30.40
43999;DHT22;51319;52.162;5.302;2024-03-08T11:13:42;26.30;29.90
43999;DHT22;51319;52.162;5.302;2024-03-08T11:19:01;26.60;29.60
43999;DHT22;51319;52.162;5.302;2024-03-08T11:21:32;26.60;29.60
43999;DHT22;51319;52.162;5.302;2024-03-08T11:24:13;26.70;29.80
43999;DHT22;51319;52.162;5.302;2024-03-08T11:26:41;26.80;29.40
43999;DHT22;51319;52.162;5.302;2024-03-08T11:32:08;26.90;29.50
43999;DHT22;51319;52.162;5.302;2024-03-08T11:34:49;27.00;29.30
43999;DHT22;51319;52.162;5.302;2024-03-08T11:37:18;26.90;29.00
43999;DHT22;51319;52.162;5.302;2024-03-08T11:39:51;27.00;29.40
43999;DHT22;51319;52.162;5.302;2024-03-08T11:42:19;27.30;29.30
43999;DHT22;51319;52.162;5.302;2024-03-08T11:44:47;27.60;29.20
43999;DHT22;51319;52.162;5.302;2024-03-08T11:47:15;27.80;29.30
43999;DHT22;51319;52.162;5.302;2024-03-08T11:49:43;28.00;29.10
43999;DHT22;51319;52.162;5.302;2024-03-08T11:52:11;28.00;28.80
43999;DHT22;51319;52.162;5.302;2024-03-08T11:54:43;27.90;28.50
43999;DHT22;51319;52.162;5.302;2024-03-08T11:57:14;27.80;29.10
43999;DHT22;51319;52.162;5.302;2024-03-08T11:59:50;27.70;28.60
43999;DHT22;51319;52.162;5.302;2024-03-08T12:02:21;27.90;28.80
43999;DHT22;51319;52.162;5.302;2024-03-08T12:04:56;28.10;28.70
43999;DHT22;51319;52.162;5.302;2024-03-08T12:07:24;28.20;28.50
43999;DHT22;51319;52.162;5.302;2024-03-08T12:10:20;28.00;28.10
43999;DHT22;51319;52.162;5.302;2024-03-08T12:12:53;27.80;28.20
43999;DHT22;51319;52.162;5.302;2024-03-08T12:15:22;27.70;28.20
43999;DHT22;51319;52.162;5.302;2024-03-08T12:17:54;27.70;28.20
43999;DHT22;51319;52.162;5.302;2024-03-08T12:20:26;27.60;28.10
43999;DHT22;51319;52.162;5.302;2024-03-08T12:22:56;27.50;28.30
43999;DHT22;51319;52.162;5.302;2024-03-08T12:25:31;27.50;28.50
43999;DHT22;51319;52.162;5.302;2024-03-08T12:28:11;27.50;28.30
43999;DHT22;51319;52.162;5.302;2024-03-08T12:30:51;27.40;28.50
43999;DHT22;51319;52.162;5.302;2024-03-08T12:33:21;27.40;28.30
43999;DHT22;51319;52.162;5.302;2024-03-08T12:35:53;27.50;28.40
43999;DHT22;51319;52.162;5.302;2024-03-08T12:38:22;27.50;28.10
43999;DHT22;51319;52.162;5.302;2024-03-08T12:40:58;27.00;27.80
43999;DHT22;51319;52.162;5.302;2024-03-08T12:43:26;26.80;28.50
43999;DHT22;51319;52.162;5.302;2024-03-08T12:45:58;26.70;28.80
43999;DHT22;51319;52.162;5.302;2024-03-08T12:48:26;26.20;28.50
43999;DHT22;51319;52.162;5.302;2024-03-08T12:50:53;25.40;29.20
43999;DHT22;51319;52.162;5.302;2024-03-08T12:53:21;24.80;29.20
43999;DHT22;51319;52.162;5.302;2024-03-08T12:55:50;23.80;29.70
43999;DHT22;51319;52.162;5.302;2024-03-08T12:58:17;22.80;30.80
43999;DHT22;51319;52.162;5.302;2024-03-08T13:00:44;22.40;31.00
43999;DHT22;51319;52.162;5.302;2024-03-08T13:03:13;21.80;31.50
43999;DHT22;51319;52.162;5.302;2024-03-08T13:05:40;21.20;32.40
43999;DHT22;51319;52.162;5.302;2024-03-08T13:08:09;20.80;32.70
43999;DHT22;51319;52.162;5.302;2024-03-08T13:10:40;20.10;33.60
43999;DHT22;51319;52.162;5.302;2024-03-08T13:13:11;19.50;34.70
43999;DHT22;51319;52.162;5.302;2024-03-08T13:15:42;19.20;35.20
43999;DHT22;51319;52.162;5.302;2024-03-08T13:18:09;19.00;35.70
43999;DHT22;51319;52.162;5.302;2024-03-08T13:20:37;18.80;36.10
43999;DHT22;51319;52.162;5.302;2024-03-08T13:23:13;19.00;36.30
43999;DHT22;51319;52.162;5.302;2024-03-08T13:25:40;19.30;35.80
43999;DHT22;51319;52.162;5.302;2024-03-08T13:28:08;18.90;35.50
43999;DHT22;51319;52.162;5.302;2024-03-08T13:30:36;18.40;36.40
43999;DHT22;51319;52.162;5.302;2024-03-08T13:33:03;18.10;36.90
43999;DHT22;51319;52.162;5.302;2024-03-08T13:35:32;18.00;37.10
43999;DHT22;51319;52.162;5.302;2024-03-08T13:38:02;18.40;36.90
43999;DHT22;51319;52.162;5.302;2024-03-08T13:40:36;18.60;37.40
43999;DHT22;51319;52.162;5.302;2024-03-08T13:43:05;18.80;36.80
43999;DHT22;51319;52.162;5.302;2024-03-08T13:45:35;18.70;36.90
43999;DHT22;51319;52.162;5.302;2024-03-08T13:48:05;18.60;37.50
43999;DHT22;51319;52.162;5.302;2024-03-08T13:50:32;18.50;37.30
43999;DHT22;51319;52.162;5.302;2024-03-08T13:52:59;18.20;37.00
43999;DHT22;51319;52.162;5.302;2024-03-08T13:55:26;17.80;37.60
43999;DHT22;51319;52.162;5.302;2024-03-08T13:57:54;17.90;37.60
43999;DHT22;51319;52.162;5.302;2024-03-08T14:00:21;17.80;37.80
43999;DHT22;51319;52.162;5.302;2024-03-08T14:02:50;17.60;37.80
43999;DHT22;51319;52.162;5.302;2024-03-08T14:05:17;17.30;38.00
43999;DHT22;51319;52.162;5.302;2024-03-08T14:07:48;16.90;38.60
43999;DHT22;51319;52.162;5.302;2024-03-08T14:10:18;16.80;38.60
43999;DHT22;51319;52.162;5.302;2024-03-08T14:12:50;16.70;39.60
43999;DHT22;51319;52.162;5.302;2024-03-08T14:15:18;16.80;39.60
43999;DHT22;51319;52.162;5.302;2024-03-08T14:17:45;17.00;39.70
43999;DHT22;51319;52.162;5.302;2024-03-08T14:20:14;17.10;39.40
43999;DHT22;51319;52.162;5.302;2024-03-08T14:22:41;17.00;39.10
43999;DHT22;51319;52.162;5.302;2024-03-08T14:25:08;16.90;39.60
43999;DHT22;51319;52.162;5.302;2024-03-08T14:27:45;16.90;39.10
43999;DHT22;51319;52.162;5.302;2024-03-08T14:30:13;16.80;39.10
43999;DHT22;51319;52.162;5.302;2024-03-08T14:33:00;16.90;39.60
43999;DHT22;51319;52.162;5.302;2024-03-08T14:35:29;16.80;39.60
43999;DHT22;51319;52.162;5.302;2024-03-08T14:37:58;16.80;39.80
43999;DHT22;51319;52.162;5.302;2024-03-08T14:40:25;16.90;39.70
43999;DHT22;51319;52.162;5.302;2024-03-08T14:42:53;17.00;39.80
43999;DHT22;51319;52.162;5.302;2024-03-08T14:45:20;17.00;39.90
43999;DHT22;51319;52.162;5.302;2024-03-08T14:47:47;17.00;40.00
43999;DHT22;51319;52.162;5.302;2024-03-08T14:50:18;17.00;40.10
43999;DHT22;51319;52.162;5.302;2024-03-08T14:52:46;16.90;40.10
43999;DHT22;51319;52.162;5.302;2024-03-08T14:55:16;16.70;40.50
43999;DHT22;51319;52.162;5.302;2024-03-08T14:57:43;16.60;41.00
43999;DHT22;51319;52.162;5.302;2024-03-08T15:00:13;16.30;40.60
43999;DHT22;51319;52.162;5.302;2024-03-08T15:03:05;15.90;41.20
43999;DHT22;51319;52.162;5.302;2024-03-08T15:05:34;15.70;41.70
43999;DHT22;51319;52.162;5.302;2024-03-08T15:08:06;15.30;42.00
43999;DHT22;51319;52.162;5.302;2024-03-08T15:10:38;15.00;42.70
43999;DHT22;51319;52.162;5.302;2024-03-08T15:13:08;14.60;43.50
43999;DHT22;51319;52.162;5.302;2024-03-08T15:15:42;14.30;43.90
43999;DHT22;51319;52.162;5.302;2024-03-08T15:18:10;14.00;44.30
43999;DHT22;51319;52.162;5.302;2024-03-08T15:20:38;13.70;45.00
43999;DHT22;51319;52.162;5.302;2024-03-08T15:23:05;13.40;45.70
43999;DHT22;51319;52.162;5.302;2024-03-08T15:25:37;13.20;46.20
43999;DHT22;51319;52.162;5.302;2024-03-08T15:28:05;13.00;46.80
43999;DHT22;51319;52.162;5.302;2024-03-08T15:30:40;12.80;47.40
43999;DHT22;51319;52.162;5.302;2024-03-08T15:33:12;12.60;47.70
43999;DHT22;51319;52.162;5.302;2024-03-08T15:35:39;12.50;48.10
43999;DHT22;51319;52.162;5.302;2024-03-08T15:38:06;12.40;48.50
43999;DHT22;51319;52.162;5.302;2024-03-08T15:40:35;12.20;48.60
43999;DHT22;51319;52.162;5.302;2024-03-08T15:43:02;12.10;48.70
43999;DHT22;51319;52.162;5.302;2024-03-08T15:45:30;12.00;49.20
43999;DHT22;51319;52.162;5.302;2024-03-08T15:47:57;12.00;49.60
43999;DHT22;51319;52.162;5.302;2024-03-08T15:50:25;11.90;49.60
43999;DHT22;51319;52.162;5.302;2024-03-08T15:52:52;11.80;49.70
43999;DHT22;51319;52.162;5.302;2024-03-08T15:55:20;11.80;50.10
43999;DHT22;51319;52.162;5.302;2024-03-08T15:57:53;11.70;50.30